createdAt,value
2016-12-07T00:00:11.404Z,968.68
2016-12-07T00:00:37.391Z,968.69
2016-12-07T00:01:03.402Z,968.68
2016-12-07T00:01:29.390Z,968.69
2016-12-07T00:01:55.402Z,968.74
2016-12-07T00:02:21.387Z,968.69
2016-12-07T00:02:47.374Z,968.69
2016-12-07T00:03:13.359Z,968.68
2016-12-07T00:03:39.344Z,968.68
2016-12-07T00:04:05.364Z,968.67
2016-12-07T00:04:31.352Z,968.73
2016-12-07T00:04:57.337Z,968.71
2016-12-07T00:05:23.354Z,968.7
2016-12-07T00:05:49.352Z,968.71
2016-12-07T00:06:15.353Z,968.71
2016-12-07T00:06:41.373Z,968.67
2016-12-07T00:07:07.375Z,968.7
2016-12-07T00:07:33.362Z,968.75
2016-12-07T00:07:59.359Z,968.75
2016-12-07T00:08:25.343Z,968.78
2016-12-07T00:08:51.328Z,968.78
2016-12-07T00:09:17.315Z,968.77
2016-12-07T00:09:43.491Z,968.8
2016-12-07T00:10:09.473Z,968.79
2016-12-07T00:10:35.466Z,968.79
2016-12-07T00:11:01.489Z,968.79
2016-12-07T00:11:27.472Z,968.76
2016-12-07T00:11:53.480Z,968.77
2016-12-07T00:12:19.454Z,968.8
2016-12-07T00:12:45.451Z,968.8
2016-12-07T00:13:11.426Z,968.78
2016-12-07T00:13:37.420Z,968.75
2016-12-07T00:14:03.409Z,968.75
2016-12-07T00:14:29.394Z,968.76
2016-12-07T00:14:55.380Z,968.77
2016-12-07T00:15:21.371Z,968.74
2016-12-07T00:15:47.356Z,968.72
2016-12-07T00:16:13.341Z,968.76
2016-12-07T00:16:39.323Z,968.75
2016-12-07T00:17:05.310Z,968.77
2016-12-07T00:17:31.295Z,968.76
2016-12-07T00:17:57.279Z,968.78
2016-12-07T00:18:23.279Z,968.77
2016-12-07T00:18:49.266Z,968.75
2016-12-07T00:19:15.248Z,968.75
2016-12-07T00:19:41.250Z,968.76
2016-12-07T00:20:07.235Z,968.75
2016-12-07T00:20:33.222Z,968.77
2016-12-07T00:20:59.208Z,968.74
2016-12-07T00:21:25.193Z,968.74
2016-12-07T00:21:51.242Z,968.75
2016-12-07T00:22:17.195Z,968.74
2016-12-07T00:22:43.179Z,968.74
2016-12-07T00:23:09.161Z,968.73
2016-12-07T00:23:35.146Z,968.69
2016-12-07T00:24:01.130Z,968.68
2016-12-07T00:24:27.113Z,968.71
2016-12-07T00:24:53.097Z,968.69
2016-12-07T00:25:19.090Z,968.7
2016-12-07T00:25:45.076Z,968.68
2016-12-07T00:26:11.059Z,968.67
2016-12-07T00:26:37.044Z,968.65
2016-12-07T00:27:03.029Z,968.66
2016-12-07T00:27:29.015Z,968.65
2016-12-07T00:27:55.053Z,968.6
2016-12-07T00:28:21.038Z,968.6
2016-12-07T00:28:47.022Z,968.63
2016-12-07T00:29:13.006Z,968.57
2016-12-07T00:29:38.995Z,968.64
2016-12-07T00:30:04.979Z,968.61
2016-12-07T00:30:30.958Z,968.67
2016-12-07T00:30:56.945Z,968.61
2016-12-07T00:31:22.932Z,968.59
2016-12-07T00:31:48.912Z,968.58
2016-12-07T00:32:14.919Z,968.59
2016-12-07T00:32:40.933Z,968.58
2016-12-07T00:33:06.920Z,968.61
2016-12-07T00:33:32.904Z,968.55
2016-12-07T00:33:58.902Z,968.55
2016-12-07T00:34:24.908Z,968.57
2016-12-07T00:34:50.896Z,968.54
2016-12-07T00:35:16.894Z,968.54
2016-12-07T00:35:42.878Z,968.51
2016-12-07T00:36:08.876Z,968.53
2016-12-07T00:36:34.862Z,968.53
2016-12-07T00:37:00.848Z,968.53
2016-12-07T00:37:26.832Z,968.51
2016-12-07T00:37:52.816Z,968.52
2016-12-07T00:38:18.821Z,968.53
2016-12-07T00:38:44.820Z,968.51
2016-12-07T00:39:10.916Z,968.49
2016-12-07T00:39:36.947Z,968.49
2016-12-07T00:40:02.947Z,968.47
2016-12-07T00:40:28.954Z,968.48
2016-12-07T00:40:54.945Z,968.46
2016-12-07T00:41:20.934Z,968.48
2016-12-07T00:41:46.918Z,968.49
2016-12-07T00:42:12.908Z,968.45
2016-12-07T00:42:38.894Z,968.5
2016-12-07T00:43:04.877Z,968.44
2016-12-07T00:43:30.862Z,968.46
2016-12-07T00:43:56.846Z,968.43
2016-12-07T00:44:22.829Z,968.44
2016-12-07T00:44:48.816Z,968.44
2016-12-07T00:45:14.820Z,968.43
2016-12-07T00:45:40.835Z,968.43
2016-12-07T00:46:06.820Z,968.48
2016-12-07T00:46:32.804Z,968.5
2016-12-07T00:46:58.791Z,968.47
2016-12-07T00:47:24.777Z,968.48
2016-12-07T00:47:50.780Z,968.48
2016-12-07T00:48:16.765Z,968.53
2016-12-07T00:48:42.749Z,968.53
2016-12-07T00:49:08.734Z,968.53
2016-12-07T00:49:34.729Z,968.58
2016-12-07T00:50:00.730Z,968.57
2016-12-07T00:50:26.750Z,968.56
2016-12-07T00:50:52.735Z,968.58
2016-12-07T00:51:18.721Z,968.58
2016-12-07T00:51:44.707Z,968.61
2016-12-07T00:52:10.692Z,968.61
2016-12-07T00:52:36.686Z,968.6
2016-12-07T00:53:02.704Z,968.59
2016-12-07T00:53:28.695Z,968.61
2016-12-07T00:53:54.678Z,968.57
2016-12-07T00:54:20.685Z,968.54
2016-12-07T00:54:46.673Z,968.56
2016-12-07T00:55:12.662Z,968.55
2016-12-07T00:55:38.647Z,968.56
2016-12-07T00:56:04.643Z,968.57
2016-12-07T00:56:30.628Z,968.56
2016-12-07T00:56:56.611Z,968.57
2016-12-07T00:57:22.596Z,968.56
2016-12-07T00:57:48.582Z,968.57
2016-12-07T00:58:14.586Z,968.54
2016-12-07T00:58:40.571Z,968.55
2016-12-07T00:59:06.556Z,968.6
2016-12-07T00:59:32.549Z,968.59
2016-12-07T00:59:58.544Z,968.59
2016-12-07T01:00:24.544Z,968.59
2016-12-07T01:00:50.540Z,968.59
2016-12-07T01:01:16.542Z,968.56
2016-12-07T01:01:42.827Z,968.56
2016-12-07T01:02:08.841Z,968.58
2016-12-07T01:02:34.797Z,968.58
2016-12-07T01:03:00.781Z,968.61
2016-12-07T01:03:26.766Z,968.6
2016-12-07T01:03:52.758Z,968.63
2016-12-07T01:04:18.745Z,968.6
2016-12-07T01:04:44.729Z,968.64
2016-12-07T01:05:10.716Z,968.64
2016-12-07T01:05:36.706Z,968.65
2016-12-07T01:06:02.695Z,968.62
2016-12-07T01:06:28.680Z,968.6
2016-12-07T01:06:54.663Z,968.57
2016-12-07T01:07:20.648Z,968.58
2016-12-07T01:07:46.635Z,968.58
2016-12-07T01:08:12.618Z,968.59
2016-12-07T01:08:38.607Z,968.6
2016-12-07T01:09:04.589Z,968.62
2016-12-07T01:09:30.584Z,968.59
2016-12-07T01:09:56.607Z,968.6
2016-12-07T01:10:22.596Z,968.59
2016-12-07T01:10:48.580Z,968.6
2016-12-07T01:11:14.572Z,968.6
2016-12-07T01:11:40.572Z,968.61
2016-12-07T01:12:06.560Z,968.65
2016-12-07T01:12:32.545Z,968.66
2016-12-07T01:12:58.550Z,968.68
2016-12-07T01:13:24.551Z,968.66
2016-12-07T01:13:50.527Z,968.72
2016-12-07T01:14:16.555Z,968.73
2016-12-07T01:14:42.574Z,968.73
2016-12-07T01:15:08.598Z,968.75
2016-12-07T01:15:34.577Z,968.74
2016-12-07T01:16:00.567Z,968.76
2016-12-07T01:16:26.553Z,968.76
2016-12-07T01:16:52.537Z,968.78
2016-12-07T01:17:18.527Z,968.8
2016-12-07T01:17:44.516Z,968.83
2016-12-07T01:18:10.516Z,968.81
2016-12-07T01:18:36.501Z,968.82
2016-12-07T01:19:02.485Z,968.81
2016-12-07T01:19:28.469Z,968.87
2016-12-07T01:19:54.452Z,968.87
2016-12-07T01:20:20.437Z,968.87
2016-12-07T01:20:46.434Z,968.92
2016-12-07T01:21:12.419Z,968.92
2016-12-07T01:21:38.401Z,968.95
2016-12-07T01:22:04.390Z,968.96
2016-12-07T01:22:30.379Z,968.99
2016-12-07T01:22:56.377Z,969.01
2016-12-07T01:23:22.346Z,969.03
2016-12-07T01:23:48.334Z,969.03
2016-12-07T01:24:14.332Z,969.05
2016-12-07T01:24:40.319Z,969.03
2016-12-07T01:25:06.301Z,969.03
2016-12-07T01:25:32.284Z,969.05
2016-12-07T01:25:58.270Z,969.06
2016-12-07T01:26:24.252Z,969.02
2016-12-07T01:26:50.241Z,969.06
2016-12-07T01:27:16.250Z,969.02
2016-12-07T01:27:42.237Z,969.03
2016-12-07T01:28:08.223Z,969.02
2016-12-07T01:28:34.247Z,969.06
2016-12-07T01:29:00.243Z,969.05
2016-12-07T01:29:26.232Z,969.04
2016-12-07T01:29:52.216Z,969.07
2016-12-07T01:30:18.207Z,969.04
2016-12-07T01:30:44.193Z,969.04
2016-12-07T01:31:10.180Z,969.01
2016-12-07T01:31:36.171Z,969.08
2016-12-07T01:32:02.154Z,969.06
2016-12-07T01:32:28.144Z,969.08
2016-12-07T01:32:54.129Z,969.08
2016-12-07T01:33:20.115Z,969.11
2016-12-07T01:33:46.100Z,969.1
2016-12-07T01:34:12.094Z,969.11
2016-12-07T01:34:38.080Z,969.12
2016-12-07T01:35:04.069Z,969.16
2016-12-07T01:35:30.051Z,969.17
2016-12-07T01:35:56.043Z,969.19
2016-12-07T01:36:22.032Z,969.17
2016-12-07T01:36:48.019Z,969.21
2016-12-07T01:37:14.017Z,969.2
2016-12-07T01:37:40.017Z,969.22
2016-12-07T01:38:06.005Z,969.22
2016-12-07T01:38:31.993Z,969.22
2016-12-07T01:38:57.973Z,969.21
2016-12-07T01:39:23.971Z,969.23
2016-12-07T01:39:49.955Z,969.26
2016-12-07T01:40:15.970Z,969.25
2016-12-07T01:40:41.954Z,969.23
2016-12-07T01:41:07.942Z,969.24
2016-12-07T01:41:33.928Z,969.25
2016-12-07T01:41:59.914Z,969.23
2016-12-07T01:42:25.900Z,969.27
2016-12-07T01:42:51.884Z,969.3
2016-12-07T01:43:17.866Z,969.24
2016-12-07T01:43:43.851Z,969.25
2016-12-07T01:44:09.835Z,969.25
2016-12-07T01:44:35.824Z,969.26
2016-12-07T01:45:01.814Z,969.25
2016-12-07T01:45:27.795Z,969.25
2016-12-07T01:45:53.779Z,969.24
2016-12-07T01:46:19.766Z,969.2
2016-12-07T01:46:45.766Z,969.21
2016-12-07T01:47:11.752Z,969.18
2016-12-07T01:47:37.767Z,969.18
2016-12-07T01:48:03.739Z,969.15
2016-12-07T01:48:29.741Z,969.14
2016-12-07T01:48:55.737Z,969.13
2016-12-07T01:49:21.720Z,969.12
2016-12-07T01:49:47.708Z,969.1
2016-12-07T01:50:13.695Z,969.12
2016-12-07T01:50:39.678Z,969.09
2016-12-07T01:51:05.660Z,969.13
2016-12-07T01:51:31.651Z,969.1
2016-12-07T01:51:57.644Z,969.1
2016-12-07T01:52:23.639Z,969.05
2016-12-07T01:52:49.632Z,969.09
2016-12-07T01:53:15.629Z,969.1
2016-12-07T01:53:41.635Z,969.13
2016-12-07T01:54:07.608Z,969.09
2016-12-07T01:54:33.602Z,969.11
2016-12-07T01:54:59.585Z,969.08
2016-12-07T01:55:25.573Z,969.1
2016-12-07T01:55:51.554Z,969.08
2016-12-07T01:56:17.535Z,969.08
2016-12-07T01:56:43.521Z,969.09
2016-12-07T01:57:09.505Z,969.14
2016-12-07T01:57:35.500Z,969.16
2016-12-07T01:58:01.487Z,969.15
2016-12-07T01:58:27.471Z,969.17
2016-12-07T01:58:53.457Z,969.16
2016-12-07T01:59:19.451Z,969.21
2016-12-07T01:59:45.441Z,969.21
2016-12-07T02:00:11.428Z,969.19
2016-12-07T02:00:37.412Z,969.2
2016-12-07T02:01:03.399Z,969.26
2016-12-07T02:01:29.386Z,969.27
2016-12-07T02:01:55.376Z,969.24
2016-12-07T02:02:21.361Z,969.25
2016-12-07T02:02:47.378Z,969.26
2016-12-07T02:03:13.371Z,969.25
2016-12-07T02:03:39.354Z,969.24
2016-12-07T02:04:05.348Z,969.25
2016-12-07T02:04:31.333Z,969.28
2016-12-07T02:04:57.321Z,969.28
2016-12-07T02:05:23.303Z,969.29
2016-12-07T02:05:49.288Z,969.27
2016-12-07T02:06:15.276Z,969.25
2016-12-07T02:06:41.261Z,969.25
2016-12-07T02:07:07.250Z,969.27
2016-12-07T02:07:33.235Z,969.27
2016-12-07T02:07:59.249Z,969.27
2016-12-07T02:08:25.229Z,969.29
2016-12-07T02:08:51.226Z,969.28
2016-12-07T02:09:17.211Z,969.29
2016-12-07T02:09:43.196Z,969.27
2016-12-07T02:10:09.181Z,969.29
2016-12-07T02:10:35.164Z,969.27
2016-12-07T02:11:01.151Z,969.27
2016-12-07T02:11:27.139Z,969.24
2016-12-07T02:11:53.122Z,969.25
2016-12-07T02:12:19.107Z,969.2
2016-12-07T02:12:45.087Z,969.22
2016-12-07T02:13:11.073Z,969.19
2016-12-07T02:13:37.065Z,969.16
2016-12-07T02:14:03.060Z,969.18
2016-12-07T02:14:29.042Z,969.17
2016-12-07T02:14:55.026Z,969.14
2016-12-07T02:15:21.011Z,969.18
2016-12-07T02:15:46.995Z,969.17
2016-12-07T02:16:12.981Z,969.15
2016-12-07T02:16:38.969Z,969.18
2016-12-07T02:17:04.955Z,969.16
2016-12-07T02:17:30.936Z,969.15
2016-12-07T02:17:56.920Z,969.18
2016-12-07T02:18:22.924Z,969.15
2016-12-07T02:18:48.889Z,969.16
2016-12-07T02:19:14.876Z,969.13
2016-12-07T02:19:40.872Z,969.13
2016-12-07T02:20:06.872Z,969.13
2016-12-07T02:20:32.868Z,969.11
2016-12-07T02:20:58.847Z,969.09
2016-12-07T02:21:24.861Z,969.12
2016-12-07T02:21:50.841Z,969.1
2016-12-07T02:22:16.835Z,969.11
2016-12-07T02:22:42.840Z,969.11
2016-12-07T02:23:08.815Z,969.14
2016-12-07T02:23:34.800Z,969.13
2016-12-07T02:24:00.785Z,969.14
2016-12-07T02:24:26.773Z,969.15
2016-12-07T02:24:52.757Z,969.11
2016-12-07T02:25:18.742Z,969.12
2016-12-07T02:25:44.729Z,969.11
2016-12-07T02:26:10.717Z,969.16
2016-12-07T02:26:36.711Z,969.15
2016-12-07T02:27:02.696Z,969.15
2016-12-07T02:27:28.697Z,969.14
2016-12-07T02:27:54.696Z,969.14
2016-12-07T02:28:20.685Z,969.11
2016-12-07T02:28:46.671Z,969.1
2016-12-07T02:29:12.655Z,969.08
2016-12-07T02:29:38.640Z,969.09
2016-12-07T02:30:04.627Z,969.14
2016-12-07T02:30:30.611Z,969.08
2016-12-07T02:30:56.601Z,969.11
2016-12-07T02:31:22.583Z,969.1
2016-12-07T02:31:48.568Z,969.14
2016-12-07T02:32:14.554Z,969.14
2016-12-07T02:32:40.540Z,969.17
2016-12-07T02:33:06.543Z,969.18
2016-12-07T02:33:32.528Z,969.18
2016-12-07T02:33:58.511Z,969.17
2016-12-07T02:34:24.508Z,969.18
2016-12-07T02:34:50.498Z,969.15
2016-12-07T02:35:16.482Z,969.17
2016-12-07T02:35:42.468Z,969.17
2016-12-07T02:36:08.453Z,969.18
2016-12-07T02:36:34.436Z,969.15
2016-12-07T02:37:00.424Z,969.13
2016-12-07T02:37:26.408Z,969.16
2016-12-07T02:37:52.391Z,969.12
2016-12-07T02:38:18.373Z,969.12
2016-12-07T02:38:44.356Z,969.15
2016-12-07T02:39:10.344Z,969.16
2016-12-07T02:39:36.330Z,969.16
2016-12-07T02:40:02.349Z,969.1
2016-12-07T02:40:28.333Z,969.15
2016-12-07T02:40:54.320Z,969.15
2016-12-07T02:41:20.307Z,969.14
2016-12-07T02:41:46.290Z,969.13
2016-12-07T02:42:12.579Z,969.16
2016-12-07T02:42:38.567Z,969.13
2016-12-07T02:43:04.560Z,969.14
2016-12-07T02:43:30.542Z,969.11
2016-12-07T02:43:56.528Z,969.14
2016-12-07T02:44:22.517Z,969.11
2016-12-07T02:44:48.514Z,969.14
2016-12-07T02:45:14.498Z,969.1
2016-12-07T02:45:40.490Z,969.13
2016-12-07T02:46:06.478Z,969.15
2016-12-07T02:46:32.496Z,969.12
2016-12-07T02:46:58.479Z,969.13
2016-12-07T02:47:24.463Z,969.17
2016-12-07T02:47:50.451Z,969.15
2016-12-07T02:48:16.437Z,969.16
2016-12-07T02:48:42.422Z,969.18
2016-12-07T02:49:08.410Z,969.19
2016-12-07T02:49:34.408Z,969.22
2016-12-07T02:50:00.391Z,969.21
2016-12-07T02:50:26.375Z,969.23
2016-12-07T02:50:52.359Z,969.25
2016-12-07T02:51:18.360Z,969.26
2016-12-07T02:51:44.342Z,969.28
2016-12-07T02:52:10.337Z,969.3
2016-12-07T02:52:36.331Z,969.31
2016-12-07T02:53:02.329Z,969.31
2016-12-07T02:53:28.329Z,969.34
2016-12-07T02:53:54.313Z,969.33
2016-12-07T02:54:20.306Z,969.31
2016-12-07T02:54:46.297Z,969.34
2016-12-07T02:55:12.284Z,969.31
2016-12-07T02:55:38.262Z,969.33
2016-12-07T02:56:04.266Z,969.34
2016-12-07T02:56:30.251Z,969.32
2016-12-07T02:56:56.254Z,969.31
2016-12-07T02:57:22.248Z,969.34
2016-12-07T02:57:48.232Z,969.34
2016-12-07T02:58:14.216Z,969.32
2016-12-07T02:58:40.201Z,969.34
2016-12-07T02:59:06.185Z,969.35
2016-12-07T02:59:32.210Z,969.34
2016-12-07T02:59:58.205Z,969.34
2016-12-07T03:00:24.228Z,969.32
2016-12-07T03:00:50.209Z,969.34
2016-12-07T03:01:16.197Z,969.33
2016-12-07T03:01:42.183Z,969.32
2016-12-07T03:02:08.167Z,969.33
2016-12-07T03:02:34.154Z,969.34
2016-12-07T03:03:00.145Z,969.34
2016-12-07T03:03:26.130Z,969.35
2016-12-07T03:03:52.121Z,969.37
2016-12-07T03:04:18.108Z,969.35
2016-12-07T03:04:44.105Z,969.37
2016-12-07T03:05:10.079Z,969.41
2016-12-07T03:05:36.062Z,969.41
2016-12-07T03:06:02.047Z,969.42
2016-12-07T03:06:28.033Z,969.39
2016-12-07T03:06:54.017Z,969.44
2016-12-07T03:07:20.033Z,969.45
2016-12-07T03:07:46.019Z,969.43
2016-12-07T03:08:12.001Z,969.44
2016-12-07T03:08:38.000Z,969.46
2016-12-07T03:09:03.982Z,969.46
2016-12-07T03:09:29.969Z,969.48
2016-12-07T03:09:55.958Z,969.47
2016-12-07T03:10:21.957Z,969.49
2016-12-07T03:10:47.958Z,969.49
2016-12-07T03:11:13.948Z,969.47
2016-12-07T03:11:39.929Z,969.52
2016-12-07T03:12:05.912Z,969.51
2016-12-07T03:12:31.899Z,969.49
2016-12-07T03:12:57.883Z,969.53
2016-12-07T03:13:23.873Z,969.5
2016-12-07T03:13:49.856Z,969.53
2016-12-07T03:14:15.860Z,969.51
2016-12-07T03:14:41.843Z,969.49
2016-12-07T03:15:07.829Z,969.5
2016-12-07T03:15:33.818Z,969.51
2016-12-07T03:15:59.801Z,969.43
2016-12-07T03:16:25.788Z,969.45
2016-12-07T03:16:51.779Z,969.47
2016-12-07T03:17:17.766Z,969.45
2016-12-07T03:17:43.765Z,969.44
2016-12-07T03:18:09.754Z,969.49
2016-12-07T03:18:35.730Z,969.47
2016-12-07T03:19:01.715Z,969.46
2016-12-07T03:19:27.698Z,969.43
2016-12-07T03:19:53.694Z,969.49
2016-12-07T03:20:19.681Z,969.43
2016-12-07T03:20:45.665Z,969.48
2016-12-07T03:21:11.658Z,969.45
2016-12-07T03:21:37.641Z,969.45
2016-12-07T03:22:03.631Z,969.47
2016-12-07T03:22:29.613Z,969.49
2016-12-07T03:22:55.599Z,969.48
2016-12-07T03:23:21.590Z,969.53
2016-12-07T03:23:47.584Z,969.53
2016-12-07T03:24:13.565Z,969.5
2016-12-07T03:24:39.549Z,969.52
2016-12-07T03:25:05.535Z,969.53
2016-12-07T03:25:31.554Z,969.49
2016-12-07T03:25:57.542Z,969.5
2016-12-07T03:26:23.550Z,969.49
2016-12-07T03:26:49.533Z,969.52
2016-12-07T03:27:15.517Z,969.52
2016-12-07T03:27:41.501Z,969.48
2016-12-07T03:28:07.486Z,969.5
2016-12-07T03:28:33.471Z,969.49
2016-12-07T03:28:59.454Z,969.5
2016-12-07T03:29:25.448Z,969.47
2016-12-07T03:29:51.445Z,969.51
2016-12-07T03:30:17.425Z,969.49
2016-12-07T03:30:43.416Z,969.51
2016-12-07T03:31:09.411Z,969.5
2016-12-07T03:31:35.433Z,969.53
2016-12-07T03:32:01.507Z,969.5
2016-12-07T03:32:27.498Z,969.49
2016-12-07T03:32:53.505Z,969.5
2016-12-07T03:33:19.487Z,969.49
2016-12-07T03:33:45.471Z,969.53
2016-12-07T03:34:11.460Z,969.5
2016-12-07T03:34:37.444Z,969.51
2016-12-07T03:35:03.427Z,969.48
2016-12-07T03:35:29.410Z,969.47
2016-12-07T03:35:55.400Z,969.47
2016-12-07T03:36:21.382Z,969.4
2016-12-07T03:36:47.367Z,969.48
2016-12-07T03:37:13.354Z,969.45
2016-12-07T03:37:39.378Z,969.44
2016-12-07T03:38:48.182Z,969.43
2016-12-07T03:39:14.168Z,969.41
2016-12-07T03:39:40.152Z,969.42
2016-12-07T03:40:06.137Z,969.38
2016-12-07T03:40:32.119Z,969.42
2016-12-07T03:40:58.102Z,969.41
2016-12-07T03:41:24.092Z,969.43
2016-12-07T03:41:50.071Z,969.41
2016-12-07T03:42:16.057Z,969.4
2016-12-07T03:42:42.041Z,969.41
2016-12-07T03:43:08.058Z,969.42
2016-12-07T03:43:34.029Z,969.42
2016-12-07T03:44:00.026Z,969.42
2016-12-07T03:44:26.013Z,969.4
2016-12-07T03:44:52.000Z,969.45
2016-12-07T03:45:17.988Z,969.43
2016-12-07T03:45:43.973Z,969.47
2016-12-07T03:46:09.985Z,969.46
2016-12-07T03:46:35.941Z,969.48
2016-12-07T03:47:01.928Z,969.48
2016-12-07T03:47:27.914Z,969.51
2016-12-07T03:47:53.903Z,969.47
2016-12-07T03:48:19.889Z,969.47
2016-12-07T03:48:45.874Z,969.48
2016-12-07T03:49:11.864Z,969.5
2016-12-07T03:49:37.849Z,969.5
2016-12-07T03:50:03.840Z,969.52
2016-12-07T03:50:29.837Z,969.48
2016-12-07T03:50:55.846Z,969.52
2016-12-07T03:51:21.840Z,969.5
2016-12-07T03:51:47.846Z,969.51
2016-12-07T03:52:13.855Z,969.49
2016-12-07T03:52:40.142Z,969.48
2016-12-07T03:53:06.125Z,969.5
2016-12-07T03:53:32.110Z,969.48
2016-12-07T03:53:58.096Z,969.47
2016-12-07T03:54:24.079Z,969.53
2016-12-07T03:54:50.074Z,969.5
2016-12-07T03:55:16.060Z,969.51
2016-12-07T03:55:42.076Z,969.54
2016-12-07T03:56:08.037Z,969.49
2016-12-07T03:56:34.017Z,969.52
2016-12-07T03:57:01.120Z,969.51
2016-12-07T03:57:27.255Z,969.5
2016-12-07T03:57:53.251Z,969.51
2016-12-07T03:58:19.237Z,969.52
2016-12-07T03:58:45.237Z,969.54
2016-12-07T03:59:11.222Z,969.55
2016-12-07T03:59:37.206Z,969.58
2016-12-07T04:00:03.192Z,969.58
2016-12-07T04:00:29.176Z,969.56
2016-12-07T04:00:55.186Z,969.61
2016-12-07T04:01:21.188Z,969.58
2016-12-07T04:01:47.174Z,969.55
2016-12-07T04:02:13.160Z,969.6
2016-12-07T04:02:39.144Z,969.56
2016-12-07T04:03:05.133Z,969.57
2016-12-07T04:03:31.118Z,969.55
2016-12-07T04:03:57.103Z,969.59
2016-12-07T04:04:23.125Z,969.56
2016-12-07T04:04:49.136Z,969.58
2016-12-07T04:05:15.118Z,969.57
2016-12-07T04:05:41.165Z,969.56
2016-12-07T04:06:07.169Z,969.57
2016-12-07T04:06:33.147Z,969.58
2016-12-07T04:06:59.157Z,969.53
2016-12-07T04:07:25.129Z,969.53
2016-12-07T04:07:51.416Z,969.52
2016-12-07T04:08:17.403Z,969.51
2016-12-07T04:08:43.386Z,969.5
2016-12-07T04:09:09.383Z,969.49
2016-12-07T04:09:35.367Z,969.49
2016-12-07T04:10:01.525Z,969.5
2016-12-07T04:10:27.514Z,969.47
2016-12-07T04:10:53.495Z,969.47
2016-12-07T04:11:19.481Z,969.45
2016-12-07T04:11:45.483Z,969.46
2016-12-07T04:12:11.472Z,969.5
2016-12-07T04:12:37.494Z,969.5
2016-12-07T04:13:03.475Z,969.5
2016-12-07T04:13:29.460Z,969.47
2016-12-07T04:13:55.448Z,969.51
2016-12-07T04:14:21.430Z,969.52
2016-12-07T04:14:47.418Z,969.51
2016-12-07T04:15:13.405Z,969.49
2016-12-07T04:15:39.389Z,969.51
2016-12-07T04:16:05.377Z,969.55
2016-12-07T04:16:31.366Z,969.56
2016-12-07T04:16:57.352Z,969.52
2016-12-07T04:17:23.338Z,969.54
2016-12-07T04:17:49.322Z,969.55
2016-12-07T04:18:15.307Z,969.57
2016-12-07T04:18:41.291Z,969.57
2016-12-07T04:19:07.283Z,969.54
2016-12-07T04:19:33.285Z,969.52
2016-12-07T04:19:59.283Z,969.52
2016-12-07T04:20:25.274Z,969.51
2016-12-07T04:20:51.257Z,969.49
2016-12-07T04:21:17.244Z,969.52
2016-12-07T04:21:43.229Z,969.54
2016-12-07T04:22:09.225Z,969.51
2016-12-07T04:22:35.222Z,969.54
2016-12-07T04:23:01.210Z,969.53
2016-12-07T04:23:27.190Z,969.53
2016-12-07T04:23:53.177Z,969.55
2016-12-07T04:24:19.163Z,969.57
2016-12-07T04:24:45.200Z,969.58
2016-12-07T04:25:11.181Z,969.61
2016-12-07T04:25:37.172Z,969.59
2016-12-07T04:26:03.156Z,969.62
2016-12-07T04:26:29.143Z,969.65
2016-12-07T04:26:55.137Z,969.62
2016-12-07T04:27:21.127Z,969.63
2016-12-07T04:27:47.109Z,969.63
2016-12-07T04:28:13.101Z,969.65
2016-12-07T04:28:39.138Z,969.6
2016-12-07T04:29:05.122Z,969.61
2016-12-07T04:29:31.106Z,969.63
2016-12-07T04:29:57.100Z,969.61
2016-12-07T04:30:23.091Z,969.62
2016-12-07T04:30:49.129Z,969.6
2016-12-07T04:31:15.092Z,969.63
2016-12-07T04:31:41.077Z,969.64
2016-12-07T04:32:07.078Z,969.58
2016-12-07T04:32:33.063Z,969.62
2016-12-07T04:32:59.047Z,969.62
2016-12-07T04:33:25.040Z,969.61
2016-12-07T04:33:51.022Z,969.67
2016-12-07T04:34:17.011Z,969.65
2016-12-07T04:34:42.991Z,969.63
2016-12-07T04:35:08.978Z,969.66
2016-12-07T04:35:34.964Z,969.64
2016-12-07T04:36:00.950Z,969.67
2016-12-07T04:36:26.937Z,969.63
2016-12-07T04:36:52.924Z,969.64
2016-12-07T04:37:18.907Z,969.65
2016-12-07T04:37:44.900Z,969.63
2016-12-07T04:38:10.938Z,969.64
2016-12-07T04:38:36.934Z,969.68
2016-12-07T04:39:02.919Z,969.62
2016-12-07T04:39:28.932Z,969.63
2016-12-07T04:39:54.929Z,969.65
2016-12-07T04:40:20.947Z,969.69
2016-12-07T04:40:46.928Z,969.67
2016-12-07T04:41:12.924Z,969.65
2016-12-07T04:41:38.913Z,969.71
2016-12-07T04:42:04.908Z,969.69
2016-12-07T04:42:30.894Z,969.69
2016-12-07T04:42:56.881Z,969.65
2016-12-07T04:43:22.867Z,969.7
2016-12-07T04:43:48.855Z,969.71
2016-12-07T04:44:14.838Z,969.69
2016-12-07T04:44:40.826Z,969.68
2016-12-07T04:45:06.815Z,969.69
2016-12-07T04:45:32.800Z,969.71
2016-12-07T04:45:58.786Z,969.7
2016-12-07T04:46:24.771Z,969.69
2016-12-07T04:46:50.758Z,969.71
2016-12-07T04:47:16.748Z,969.7
2016-12-07T04:47:42.733Z,969.74
2016-12-07T04:48:08.730Z,969.72
2016-12-07T04:48:34.719Z,969.71
2016-12-07T04:49:00.706Z,969.74
2016-12-07T04:49:26.692Z,969.7
2016-12-07T04:49:52.700Z,969.74
2016-12-07T04:50:18.683Z,969.73
2016-12-07T04:50:44.672Z,969.72
2016-12-07T04:51:10.654Z,969.7
2016-12-07T04:51:36.644Z,969.72
2016-12-07T04:52:02.630Z,969.73
2016-12-07T04:52:28.612Z,969.7
2016-12-07T04:52:54.900Z,969.72
2016-12-07T04:53:20.912Z,969.7
2016-12-07T04:53:46.904Z,969.74
2016-12-07T04:54:12.884Z,969.73
2016-12-07T04:54:38.867Z,969.75
2016-12-07T04:55:04.855Z,969.73
2016-12-07T04:55:30.835Z,969.72
2016-12-07T04:55:56.821Z,969.68
2016-12-07T04:56:22.803Z,969.71
2016-12-07T04:56:48.790Z,969.73
2016-12-07T04:57:14.773Z,969.73
2016-12-07T04:57:40.757Z,969.73
2016-12-07T04:58:06.750Z,969.69
2016-12-07T04:58:32.736Z,969.73
2016-12-07T04:58:58.759Z,969.72
2016-12-07T04:59:24.758Z,969.69
2016-12-07T04:59:50.754Z,969.73
2016-12-07T05:00:16.749Z,969.72
2016-12-07T05:00:42.742Z,969.72
2016-12-07T05:01:08.740Z,969.72
2016-12-07T05:01:34.725Z,969.75
2016-12-07T05:02:00.708Z,969.68
2016-12-07T05:02:26.697Z,969.7
2016-12-07T05:02:52.686Z,969.72
2016-12-07T05:03:18.675Z,969.72
2016-12-07T05:03:44.664Z,969.76
2016-12-07T05:04:10.655Z,969.71
2016-12-07T05:04:36.637Z,969.68
2016-12-07T05:05:02.618Z,969.73
2016-12-07T05:05:28.605Z,969.67
2016-12-07T05:05:54.592Z,969.68
2016-12-07T05:06:20.581Z,969.65
2016-12-07T05:06:46.574Z,969.65
2016-12-07T05:07:12.562Z,969.66
2016-12-07T05:07:38.557Z,969.66
2016-12-07T05:08:04.550Z,969.63
2016-12-07T05:08:30.563Z,969.65
2016-12-07T05:08:56.552Z,969.65
2016-12-07T05:09:22.536Z,969.63
2016-12-07T05:09:48.522Z,969.68
2016-12-07T05:10:14.509Z,969.67
2016-12-07T05:10:40.495Z,969.62
2016-12-07T05:11:06.479Z,969.64
2016-12-07T05:11:32.466Z,969.65
2016-12-07T05:11:58.448Z,969.65
2016-12-07T05:12:24.433Z,969.64
2016-12-07T05:12:50.436Z,969.65
2016-12-07T05:13:16.418Z,969.64
2016-12-07T05:13:42.403Z,969.65
2016-12-07T05:14:08.389Z,969.61
2016-12-07T05:14:34.402Z,969.62
2016-12-07T05:15:00.394Z,969.6
2016-12-07T05:15:26.404Z,969.57
2016-12-07T05:15:52.380Z,969.59
2016-12-07T05:16:18.400Z,969.6
2016-12-07T05:16:44.392Z,969.6
2016-12-07T05:17:10.389Z,969.6
2016-12-07T05:17:36.381Z,969.59
2016-12-07T05:18:02.369Z,969.62
2016-12-07T05:18:28.380Z,969.56
2016-12-07T05:18:54.373Z,969.57
2016-12-07T05:19:20.371Z,969.58
2016-12-07T05:19:46.356Z,969.62
2016-12-07T05:20:12.350Z,969.59
2016-12-07T05:20:38.333Z,969.55
2016-12-07T05:21:04.319Z,969.56
2016-12-07T05:21:30.307Z,969.57
2016-12-07T05:21:56.294Z,969.55
2016-12-07T05:22:22.277Z,969.57
2016-12-07T05:22:48.264Z,969.61
2016-12-07T05:23:14.249Z,969.61
2016-12-07T05:23:40.237Z,969.6
2016-12-07T05:24:06.219Z,969.61
2016-12-07T05:24:32.208Z,969.62
2016-12-07T05:24:58.194Z,969.65
2016-12-07T05:25:24.191Z,969.64
2016-12-07T05:25:50.179Z,969.64